Time;durP1;ratioP1;P1;durP2;ratioP2;P2;SDS_P1;SDS_P2;PMS_P1;PMS_P2;Temp;Humidity;BMP_temperature;BMP_pressure;BME280_temperature;BME280_humidity;BME280_pressure;Samples;Min_cycle;Max_cycle;Signal;HPM_P1;HPM_P2
2021/10/13 03:16:30;;;;;;;9.30;8.30;;;7.80;98.30;;;;;;544932;24;20887;-80
2021/10/13 03:18:36;;;;;;;9.23;8.43;;;7.80;98.30;;;;;;3951039;30;20494;-80
2021/10/13 03:20:42;;;;;;;8.80;8.00;;;7.80;98.30;;;;;;3966002;30;20452;-79
2021/10/13 03:22:45;;;;;;;13.90;12.50;;;7.80;98.30;;;;;;3953398;30;20499;-80
2021/10/13 03:24:48;;;;;;;25.40;20.77;;;8.00;98.30;;;;;;3946101;30;20498;-80
2021/10/13 03:26:52;;;;;;;30.03;22.40;;;8.10;98.30;;;;;;3957154;30;20474;-80
2021/10/13 03:28:55;;;;;;;12.10;10.80;;;8.10;98.30;;;;;;3955580;30;20474;-80
2021/10/13 03:30:58;;;;;;;13.67;12.20;;;8.00;98.30;;;;;;3954874;30;20528;-80
2021/10/13 03:33:02;;;;;;;14.37;12.17;;;7.90;98.30;;;;;;3965928;30;21141;-80
2021/10/13 03:35:06;;;;;;;16.70;14.07;;;7.90;98.30;;;;;;3956005;30;20525;-81
2021/10/13 03:37:08;;;;;;;11.97;10.77;;;7.80;98.30;;;;;;3958703;30;20486;-80
2021/10/13 03:39:12;;;;;;;9.43;8.53;;;7.50;98.30;;;;;;3956209;30;20482;-80
2021/10/13 03:41:15;;;;;;;10.83;9.70;;;7.20;98.30;;;;;;3957887;30;21097;-80
2021/10/13 03:43:18;;;;;;;10.73;9.63;;;7.20;98.30;;;;;;3952758;30;20453;-80
2021/10/13 03:45:23;;;;;;;9.77;8.87;;;7.20;98.30;;;;;;3949739;30;20486;-80
2021/10/13 03:47:27;;;;;;;23.63;19.60;;;7.20;98.30;;;;;;3953295;30;20455;-80
2021/10/13 03:49:31;;;;;;;42.73;33.30;;;7.20;98.30;;;;;;3963802;30;20460;-80
2021/10/13 03:51:34;;;;;;;37.00;29.40;;;7.40;98.30;;;;;;3953759;29;20908;-80
2021/10/13 03:53:37;;;;;;;29.73;22.53;;;7.70;98.30;;;;;;3964284;30;20491;-80
2021/10/13 03:55:40;;;;;;;37.17;10.57;;;7.60;98.30;;;;;;3956178;30;20554;-81
2021/10/13 03:57:44;;;;;;;9.50;8.50;;;7.30;98.30;;;;;;3954048;30;20512;-81
2021/10/13 03:59:46;;;;;;;19.53;9.40;;;6.90;98.30;;;;;;3940031;30;20945;-80
2021/10/13 04:01:49;;;;;;;11.57;7.90;;;6.60;98.30;;;;;;3953732;30;20971;-80
2021/10/13 04:03:53;;;;;;;13.70;8.97;;;6.50;98.30;;;;;;3956558;30;20536;-80
2021/10/13 04:05:57;;;;;;;16.50;8.67;;;6.40;98.30;;;;;;3954375;30;20827;-80
2021/10/13 04:08:00;;;;;;;15.47;11.07;;;6.40;98.30;;;;;;3961270;30;20550;-80
2021/10/13 04:10:05;;;;;;;45.83;23.20;;;6.60;98.30;;;;;;3952902;30;20471;-80
2021/10/13 04:12:08;;;;;;;27.40;9.17;;;6.60;98.30;;;;;;3952650;30;21150;-80
2021/10/13 04:14:11;;;;;;;17.80;7.87;;;6.60;98.30;;;;;;3953324;30;20478;-80
2021/10/13 04:16:14;;;;;;;13.40;7.53;;;6.40;98.30;;;;;;3952468;30;20506;-80
2021/10/13 04:18:17;;;;;;;24.50;8.30;;;6.00;98.30;;;;;;3963119;30;20479;-79
2021/10/13 04:20:20;;;;;;;14.47;8.27;;;5.80;98.30;;;;;;3963225;30;20468;-81
2021/10/13 04:22:24;;;;;;;10.40;7.70;;;5.60;98.30;;;;;;3952744;30;20589;-80
2021/10/13 04:24:27;;;;;;;18.80;8.90;;;5.30;98.30;;;;;;3956626;30;20581;-80
2021/10/13 04:26:30;;;;;;;14.10;8.73;;;5.20;98.30;;;;;;3962315;30;20490;-80
2021/10/13 04:28:33;;;;;;;31.77;10.70;;;5.10;98.30;;;;;;3960394;30;20559;-79
2021/10/13 04:30:37;;;;;;;13.17;8.07;;;5.20;98.30;;;;;;3961829;30;20492;-79
2021/10/13 04:32:40;;;;;;;14.30;8.50;;;5.30;98.30;;;;;;3965675;29;21080;-79
2021/10/13 04:34:43;;;;;;;15.97;8.67;;;5.30;98.30;;;;;;3958296;30;20487;-80
2021/10/13 04:36:46;;;;;;;18.80;8.90;;;5.30;98.30;;;;;;3964058;30;20481;-80
2021/10/13 04:38:50;;;;;;;12.83;8.77;;;5.30;98.30;;;;;;3951089;30;20471;-80
2021/10/13 04:40:53;;;;;;;14.43;9.57;;;5.30;98.30;;;;;;3969416;30;20479;-80
2021/10/13 04:42:55;;;;;;;12.43;9.10;;;5.20;98.30;;;;;;3961279;29;20586;-81
2021/10/13 04:44:58;;;;;;;16.37;9.20;;;5.10;98.30;;;;;;3961623;30;20480;-82
2021/10/13 04:47:01;;;;;;;11.90;8.77;;;5.20;98.30;;;;;;3959860;30;20484;-81
2021/10/13 04:49:05;;;;;;;21.73;9.40;;;5.40;98.30;;;;;;3954871;30;20472;-82
2021/10/13 04:51:08;;;;;;;70.97;32.83;;;5.50;98.30;;;;;;3960535;30;20516;-81
2021/10/13 04:53:11;;;;;;;72.40;33.23;;;5.70;98.30;;;;;;3966715;30;20977;-79
2021/10/13 04:55:15;;;;;;;75.33;37.03;;;6.00;98.30;;;;;;3957570;30;20487;-80
2021/10/13 04:57:18;;;;;;;43.93;15.07;;;6.20;98.30;;;;;;3963481;30;20894;-79
2021/10/13 04:59:21;;;;;;;25.30;10.63;;;6.20;98.30;;;;;;3959709;30;20486;-80
2021/10/13 05:01:24;;;;;;;23.73;8.50;;;6.20;98.30;;;;;;3960410;30;20489;-80
2021/10/13 05:03:27;;;;;;;21.50;8.20;;;6.10;98.30;;;;;;3963552;30;20546;-80
2021/10/13 05:05:31;;;;;;;22.43;8.10;;;5.90;98.30;;;;;;3958303;29;20511;-80
2021/10/13 05:07:34;;;;;;;38.53;9.53;;;5.70;98.30;;;;;;3963065;30;20482;-80
2021/10/13 05:09:37;;;;;;;23.80;8.83;;;5.60;98.30;;;;;;3957794;30;20489;-80
2021/10/13 05:11:41;;;;;;;31.00;9.37;;;5.60;98.30;;;;;;3963234;30;20501;-80
2021/10/13 05:13:44;;;;;;;27.73;8.93;;;5.50;98.30;;;;;;3963021;30;20478;-80
2021/10/13 05:15:47;;;;;;;36.97;9.60;;;5.40;98.30;;;;;;3948633;30;20449;-80
2021/10/13 05:17:50;;;;;;;30.60;9.30;;;5.40;98.30;;;;;;3963642;30;20496;-80
2021/10/13 05:19:53;;;;;;;46.40;10.20;;;5.20;98.30;;;;;;3963326;29;20481;-80
2021/10/13 05:21:56;;;;;;;28.90;9.47;;;5.10;98.30;;;;;;3964185;29;20578;-80
2021/10/13 05:24:00;;;;;;;30.13;9.53;;;5.10;98.30;;;;;;3958572;30;20484;-80
2021/10/13 05:26:03;;;;;;;22.83;10.10;;;5.10;98.30;;;;;;3963580;30;21136;-79
2021/10/13 05:28:07;;;;;;;26.73;10.20;;;5.00;98.30;;;;;;3964328;30;20480;-79
2021/10/13 05:30:10;;;;;;;41.60;10.30;;;5.00;98.30;;;;;;3962115;30;20471;-79
2021/10/13 05:32:13;;;;;;;26.03;10.03;;;5.10;98.30;;;;;;3964882;29;20516;-79
2021/10/13 05:34:18;;;;;;;15.13;8.83;;;5.30;98.30;;;;;;3958385;30;20535;-79
2021/10/13 05:36:21;;;;;;;20.50;8.33;;;5.60;98.30;;;;;;3962573;30;20485;-80
2021/10/13 05:38:30;;;;;;;16.23;7.90;;;5.80;98.30;;;;;;3968297;30;20492;-80
2021/10/13 05:40:33;;;;;;;11.80;7.73;;;5.90;98.30;;;;;;3964411;30;20517;-79
2021/10/13 05:42:36;;;;;;;9.83;7.10;;;6.00;98.30;;;;;;3966241;30;20501;-80
2021/10/13 05:44:40;;;;;;;8.73;7.93;;;6.00;98.30;;;;;;3967445;30;20493;-80
2021/10/13 05:46:43;;;;;;;10.27;7.37;;;6.00;98.30;;;;;;3974607;30;20490;-79
2021/10/13 05:48:46;;;;;;;7.13;6.47;;;6.10;98.30;;;;;;3964682;30;21070;-79
2021/10/13 05:50:49;;;;;;;8.10;6.90;;;6.10;98.30;;;;;;3957470;30;20509;-80
2021/10/13 05:52:52;;;;;;;7.50;6.90;;;6.10;98.30;;;;;;3970897;29;20513;-80
2021/10/13 05:55:15;;;;;;;6.97;6.47;;;6.10;98.30;;;;;;3964690;30;20478;-80
2021/10/13 05:57:18;;;;;;;7.60;6.93;;;6.10;98.30;;;;;;3961043;30;20466;-80
2021/10/13 05:59:20;;;;;;;7.70;7.03;;;6.20;98.30;;;;;;3960867;30;20518;-80
2021/10/13 06:01:25;;;;;;;7.40;6.70;;;6.20;98.30;;;;;;3968426;29;20481;-80
2021/10/13 06:03:28;;;;;;;8.93;8.23;;;6.30;98.30;;;;;;3964488;30;20482;-79
2021/10/13 06:05:31;;;;;;;9.10;8.30;;;6.20;98.30;;;;;;3959523;30;20493;-79
2021/10/13 06:07:34;;;;;;;9.37;8.57;;;6.10;98.30;;;;;;3954696;30;20494;-80
2021/10/13 06:09:37;;;;;;;10.30;9.40;;;6.00;98.30;;;;;;3953078;30;20540;-79
2021/10/13 06:11:40;;;;;;;10.27;9.30;;;5.90;98.30;;;;;;3952832;30;20505;-79
2021/10/13 06:13:44;;;;;;;9.47;8.60;;;5.80;98.30;;;;;;3952545;30;20499;-79
2021/10/13 06:15:50;;;;;;;10.10;9.17;;;5.80;98.30;;;;;;3945572;30;20492;-80
2021/10/13 06:17:55;;;;;;;10.77;9.73;;;5.80;98.30;;;;;;3945930;30;20500;-80
2021/10/13 06:19:58;;;;;;;11.00;10.00;;;5.80;98.30;;;;;;3943403;30;20839;-79
2021/10/13 06:22:01;;;;;;;10.90;9.80;;;5.90;98.30;;;;;;3944352;30;20516;-79
2021/10/13 06:24:04;;;;;;;9.97;9.07;;;6.00;98.30;;;;;;3948503;30;20498;-80
2021/10/13 06:26:08;;;;;;;10.50;9.60;;;6.10;98.30;;;;;;3952903;30;21161;-79
2021/10/13 06:28:11;;;;;;;9.90;8.97;;;6.20;98.30;;;;;;3958342;30;20521;-79
2021/10/13 06:30:18;;;;;;;9.57;8.50;;;6.30;98.30;;;;;;3958235;30;20477;-79
2021/10/13 06:32:21;;;;;;;8.80;8.10;;;6.40;98.30;;;;;;3954871;30;20567;-80
2021/10/13 06:34:25;;;;;;;9.40;8.40;;;6.60;98.30;;;;;;3958198;30;20486;-80
2021/10/13 06:36:28;;;;;;;8.90;8.10;;;6.70;98.30;;;;;;3954922;30;20459;-80
2021/10/13 06:38:31;;;;;;;9.80;8.90;;;6.90;98.30;;;;;;3958209;30;20699;-80
2021/10/13 06:40:34;;;;;;;10.17;8.73;;;7.00;98.30;;;;;;3955135;30;20494;-80
2021/10/13 06:42:41;;;;;;;8.50;7.77;;;7.10;98.30;;;;;;3950962;30;20506;-79
2021/10/13 06:44:44;;;;;;;8.53;7.73;;;7.20;98.30;;;;;;3955004;30;20458;-80
2021/10/13 06:46:50;;;;;;;7.90;7.27;;;7.30;98.30;;;;;;3955719;30;20515;-80
2021/10/13 06:48:52;;;;;;;8.20;7.50;;;7.40;98.30;;;;;;3950877;30;20793;-79
2021/10/13 06:50:58;;;;;;;7.80;7.00;;;7.50;98.30;;;;;;3958335;30;20466;-80
2021/10/13 06:53:01;;;;;;;11.43;9.00;;;7.60;98.30;;;;;;3958240;30;20514;-80
2021/10/13 06:55:05;;;;;;;8.50;7.73;;;7.70;98.30;;;;;;3955418;30;21122;-80
2021/10/13 06:57:07;;;;;;;8.93;8.03;;;7.70;98.30;;;;;;3958861;30;21030;-79
2021/10/13 06:59:10;;;;;;;9.90;8.30;;;7.70;98.30;;;;;;3955513;30;20856;-79
2021/10/13 07:01:13;;;;;;;9.93;9.03;;;7.60;98.30;;;;;;3961008;30;20453;-80
2021/10/13 07:03:16;;;;;;;8.90;8.00;;;7.60;98.30;;;;;;3958530;30;20494;-79
2021/10/13 07:05:20;;;;;;;8.67;7.77;;;7.70;98.30;;;;;;3953142;30;20493;-80
2021/10/13 07:07:24;;;;;;;8.20;7.50;;;7.80;98.30;;;;;;3958235;30;20450;-79
2021/10/13 07:09:27;;;;;;;9.80;7.70;;;8.00;98.30;;;;;;3962461;30;20483;-79
2021/10/13 07:11:30;;;;;;;8.60;7.70;;;8.10;98.30;;;;;;3958359;30;20463;-79
2021/10/13 07:13:33;;;;;;;9.27;7.50;;;8.10;98.30;;;;;;3953683;30;20492;-80
2021/10/13 07:15:39;;;;;;;8.73;7.70;;;8.10;98.30;;;;;;3960925;30;20521;-80
2021/10/13 07:17:43;;;;;;;7.57;6.20;;;8.10;98.30;;;;;;3961888;30;20461;-80
2021/10/13 07:19:46;;;;;;;7.00;6.40;;;8.00;98.30;;;;;;3965672;30;20544;-79
2021/10/13 07:21:49;;;;;;;9.30;6.87;;;8.00;98.30;;;;;;3953984;30;20841;-80
2021/10/13 07:23:53;;;;;;;7.40;6.70;;;7.90;98.30;;;;;;3961552;30;20471;-80
2021/10/13 07:25:56;;;;;;;7.43;6.67;;;7.80;98.30;;;;;;3958664;30;20476;-79
2021/10/13 07:28:01;;;;;;;8.33;7.40;;;7.70;98.30;;;;;;3961934;30;20446;-79
2021/10/13 07:30:05;;;;;;;9.30;7.80;;;7.70;98.30;;;;;;3959290;30;20454;-79
2021/10/13 07:32:08;;;;;;;8.50;7.73;;;7.70;98.30;;;;;;3960250;30;20480;-80
2021/10/13 07:34:11;;;;;;;9.13;8.30;;;7.70;98.30;;;;;;3961357;30;20502;-79
2021/10/13 07:36:14;;;;;;;9.10;8.20;;;7.70;98.30;;;;;;3960898;30;20487;-80
2021/10/13 07:38:17;;;;;;;8.43;7.63;;;7.90;98.30;;;;;;3960373;30;20493;-79
2021/10/13 07:40:23;;;;;;;9.73;7.70;;;8.00;98.30;;;;;;3957491;30;20458;-79
2021/10/13 07:42:28;;;;;;;8.53;7.50;;;8.10;98.30;;;;;;3956565;30;20499;-80
2021/10/13 07:44:31;;;;;;;7.97;7.17;;;8.20;98.30;;;;;;3956657;30;20475;-79
2021/10/13 07:46:37;;;;;;;7.87;7.07;;;8.10;98.30;;;;;;3950834;30;20472;-80
2021/10/13 07:48:40;;;;;;;7.67;6.97;;;8.00;98.30;;;;;;3956038;30;20446;-79
2021/10/13 07:50:46;;;;;;;8.80;7.77;;;8.00;98.30;;;;;;3952502;30;20445;-79
2021/10/13 07:52:49;;;;;;;8.10;7.40;;;7.90;98.30;;;;;;3952233;30;20543;-80
2021/10/13 07:54:52;;;;;;;8.13;7.33;;;7.90;98.30;;;;;;3956508;30;20474;-79
2021/10/13 07:56:56;;;;;;;8.43;7.60;;;7.90;98.30;;;;;;3957170;30;20526;-79
2021/10/13 07:59:02;;;;;;;9.87;8.00;;;8.00;98.30;;;;;;3956922;30;20449;-79
2021/10/13 08:01:05;;;;;;;8.93;8.13;;;8.00;98.30;;;;;;3956230;30;20473;-80
2021/10/13 08:03:11;;;;;;;9.77;8.87;;;8.10;98.30;;;;;;3956459;30;21226;-80
2021/10/13 08:05:19;;;;;;;16.73;12.90;;;8.20;98.30;;;;;;3959587;30;20475;-80
2021/10/13 08:07:22;;;;;;;9.90;8.90;;;8.30;98.30;;;;;;3959595;30;20498;-80
2021/10/13 08:09:27;;;;;;;9.50;8.13;;;8.70;98.30;;;;;;3956946;30;20480;-80
2021/10/13 08:11:32;;;;;;;10.10;8.77;;;8.90;98.30;;;;;;3958919;30;20469;-80
2021/10/13 08:13:40;;;;;;;15.07;11.17;;;9.10;98.30;;;;;;3956425;30;20513;-80
2021/10/13 08:15:43;;;;;;;10.63;8.80;;;9.30;98.30;;;;;;3955764;30;20485;-80
2021/10/13 08:17:46;;;;;;;15.13;9.20;;;9.70;98.30;;;;;;3948675;30;20870;-80
2021/10/13 08:19:49;;;;;;;9.97;8.53;;;9.90;98.30;;;;;;3963491;30;20745;-80
2021/10/13 08:21:52;;;;;;;15.97;9.53;;;10.20;98.30;;;;;;3958325;30;20861;-79
2021/10/13 08:23:55;;;;;;;16.30;11.20;;;10.40;98.30;;;;;;3959154;30;20471;-79
2021/10/13 08:25:58;;;;;;;8.17;6.40;;;10.60;98.30;;;;;;3959068;30;20485;-80
2021/10/13 08:28:04;;;;;;;14.03;9.40;;;10.90;98.30;;;;;;3959450;30;21037;-79
2021/10/13 08:30:10;;;;;;;12.70;8.97;;;11.00;98.30;;;;;;3958769;30;20475;-80
2021/10/13 08:32:13;;;;;;;6.80;5.70;;;11.00;98.30;;;;;;3959434;30;20507;-79
2021/10/13 08:34:16;;;;;;;9.63;6.20;;;10.80;98.30;;;;;;3959227;30;20524;-80
2021/10/13 08:36:19;;;;;;;6.73;5.20;;;10.70;98.30;;;;;;3959337;30;20921;-80
2021/10/13 08:38:24;;;;;;;6.63;5.50;;;10.60;98.30;;;;;;3959486;30;20464;-81
2021/10/13 08:40:27;;;;;;;7.37;5.60;;;10.70;98.30;;;;;;3959409;30;20475;-80
2021/10/13 08:42:30;;;;;;;6.27;4.77;;;10.70;98.30;;;;;;3958971;30;20502;-80
2021/10/13 08:44:34;;;;;;;8.30;6.10;;;10.80;98.30;;;;;;3959130;30;21433;-80
2021/10/13 08:46:39;;;;;;;9.50;5.57;;;10.80;98.30;;;;;;3958494;30;20547;-80
2021/10/13 08:48:42;;;;;;;8.00;5.33;;;10.80;98.30;;;;;;3958259;30;20494;-80
2021/10/13 08:50:49;;;;;;;7.30;5.13;;;10.80;98.30;;;;;;3951260;30;20477;-80
2021/10/13 08:52:52;;;;;;;6.27;5.50;;;10.80;98.30;;;;;;3951458;30;20584;-79
2021/10/13 08:54:55;;;;;;;8.13;5.30;;;10.80;98.30;;;;;;3958308;30;20495;-80
2021/10/13 08:56:58;;;;;;;6.90;5.20;;;10.80;98.30;;;;;;3958686;30;20472;-80
2021/10/13 08:59:01;;;;;;;5.57;4.60;;;10.90;98.30;;;;;;3959318;30;20479;-80
2021/10/13 09:01:13;;;;;;;8.03;6.20;;;10.90;98.30;;;;;;3958919;30;20788;-80
2021/10/13 09:03:28;;;;;;;7.03;4.70;;;10.90;98.30;;;;;;3958306;30;20538;-80
2021/10/13 09:05:32;;;;;;;8.80;5.60;;;11.10;98.30;;;;;;3950693;30;20468;-80
2021/10/13 09:07:35;;;;;;;10.00;4.93;;;11.30;98.30;;;;;;3957527;30;20479;-80
2021/10/13 09:09:49;;;;;;;8.50;6.93;;;11.50;98.30;;;;;;3958267;30;20479;-80
2021/10/13 09:11:52;;;;;;;16.97;9.50;;;11.50;98.30;;;;;;3951900;30;20559;-80
2021/10/13 09:14:08;;;;;;;17.93;12.40;;;11.70;98.30;;;;;;3958784;30;20476;-80
2021/10/13 09:18:30;;;;;;;23.33;13.13;;;11.70;98.30;;;;;;3985207;24;20508;-82
2021/10/13 09:20:42;;;;;;;12.93;8.37;;;11.80;98.30;;;;;;3968133;29;20510;-84
2021/10/13 09:23:09;;;;;;;8.43;6.90;;;11.90;98.30;;;;;;3960408;30;20538;-82
2021/10/13 09:25:13;;;;;;;6.53;5.23;;;12.10;98.30;;;;;;3957518;30;20537;-81
2021/10/13 09:27:24;;;;;;;9.97;5.60;;;12.20;98.30;;;;;;3953372;29;20562;-82
2021/10/13 09:29:27;;;;;;;7.33;4.90;;;12.40;98.30;;;;;;3953529;30;20482;-81
2021/10/13 09:31:30;;;;;;;6.37;4.57;;;12.70;98.30;;;;;;3953576;30;20975;-82
2021/10/13 09:33:37;;;;;;;5.40;4.37;;;12.40;98.30;;;;;;3966331;29;20477;-82
2021/10/13 09:35:49;;;;;;;6.80;4.87;;;12.50;98.30;;;;;;3981716;29;20506;-82
2021/10/13 09:37:52;;;;;;;5.90;4.90;;;12.50;98.30;;;;;;3967423;30;20483;-82
2021/10/13 09:40:00;;;;;;;5.70;4.47;;;12.60;98.30;;;;;;3975786;30;20533;-82
2021/10/13 09:42:07;;;;;;;4.80;4.30;;;12.50;98.30;;;;;;3957936;30;20518;-82
2021/10/13 09:44:14;;;;;;;6.40;4.70;;;12.30;98.30;;;;;;3955124;30;20486;-82
2021/10/13 09:46:17;;;;;;;8.33;4.20;;;12.30;98.30;;;;;;3963207;29;20563;-82
2021/10/13 09:48:24;;;;;;;5.90;4.37;;;12.30;98.30;;;;;;3959326;30;20491;-82
2021/10/13 09:50:40;;;;;;;6.20;4.50;;;12.50;98.30;;;;;;3974089;29;20474;-82
2021/10/13 09:52:43;;;;;;;4.83;3.77;;;12.60;98.30;;;;;;3956540;29;20482;-82
2021/10/13 09:54:56;;;;;;;6.33;4.30;;;12.70;98.30;;;;;;3965414;29;20513;-82
2021/10/13 09:57:00;;;;;;;6.37;4.57;;;12.60;98.30;;;;;;3979666;29;20485;-82
2021/10/13 09:59:14;;;;;;;6.00;4.80;;;12.60;98.30;;;;;;3982067;29;20477;-82
2021/10/13 10:01:18;;;;;;;5.43;3.97;;;12.50;98.30;;;;;;3984513;29;20515;-82
2021/10/13 10:03:22;;;;;;;6.37;4.27;;;12.50;98.30;;;;;;3979257;29;20462;-81
2021/10/13 10:05:31;;;;;;;7.10;4.40;;;12.40;98.30;;;;;;3983777;29;20481;-82
2021/10/13 10:07:42;;;;;;;6.53;5.23;;;12.40;98.30;;;;;;3960156;29;20490;-82
2021/10/13 10:09:44;;;;;;;7.37;4.83;;;12.50;98.30;;;;;;3956587;30;20562;-83
2021/10/13 10:11:50;;;;;;;9.40;6.83;;;12.40;98.30;;;;;;3955912;30;20576;-82
2021/10/13 10:14:42;;;;;;;14.73;8.40;;;12.30;98.30;;;;;;3955797;30;20478;-82
2021/10/13 10:16:46;;;;;;;11.13;7.57;;;12.30;98.30;;;;;;3955112;30;20566;-82
2021/10/13 10:18:49;;;;;;;8.63;5.53;;;12.50;98.30;;;;;;3955515;29;20554;-82
2021/10/13 10:20:53;;;;;;;8.57;6.00;;;12.70;98.30;;;;;;3955374;30;20889;-82
2021/10/13 10:22:58;;;;;;;5.60;4.73;;;12.90;98.30;;;;;;3955116;29;20490;-82
2021/10/13 10:25:07;;;;;;;10.53;4.50;;;13.10;98.30;;;;;;3960644;29;20501;-82
2021/10/13 10:27:28;;;;;;;5.13;4.30;;;13.40;98.30;;;;;;3955091;30;20486;-82
2021/10/13 10:29:38;;;;;;;5.33;4.13;;;13.50;98.30;;;;;;3955350;30;20482;-82
2021/10/13 10:31:43;;;;;;;6.37;4.13;;;13.30;98.30;;;;;;3955141;30;20492;-82
2021/10/13 10:33:50;;;;;;;5.70;4.30;;;13.10;98.30;;;;;;3955351;30;20482;-82
2021/10/13 10:35:53;;;;;;;6.30;4.80;;;13.10;98.30;;;;;;3955000;30;20505;-82
2021/10/13 10:38:06;;;;;;;5.67;4.00;;;13.20;98.30;;;;;;3954832;30;20482;-82
2021/10/13 10:40:15;;;;;;;7.37;4.93;;;13.10;98.30;;;;;;3954751;30;20533;-82
2021/10/13 10:42:44;;;;;;;5.50;4.70;;;13.10;98.30;;;;;;3954460;30;20520;-82
2021/10/13 10:44:47;;;;;;;5.87;5.27;;;13.20;98.30;;;;;;3954827;30;20498;-82
2021/10/13 10:47:00;;;;;;;14.33;8.93;;;13.00;98.30;;;;;;3956382;30;20989;-83
2021/10/13 10:49:03;;;;;;;47.13;28.13;;;13.50;98.30;;;;;;3954009;29;20485;-83
2021/10/13 10:51:06;;;;;;;10.13;7.50;;;14.20;98.30;;;;;;3964769;29;20477;-83
2021/10/13 10:53:44;;;;;;;5.10;4.60;;;14.50;98.30;;;;;;3966443;29;21011;-83
2021/10/13 10:55:49;;;;;;;7.23;3.97;;;14.70;98.30;;;;;;3951409;29;20510;-83
2021/10/13 10:57:52;;;;;;;7.83;5.10;;;14.90;98.30;;;;;;3954465;30;20486;-82
2021/10/13 10:59:55;;;;;;;6.53;4.40;;;14.70;98.30;;;;;;3954542;30;20496;-83
2021/10/13 11:02:09;;;;;;;4.60;3.80;;;14.40;98.30;;;;;;3969014;29;20480;-82
2021/10/13 11:04:13;;;;;;;6.97;5.13;;;14.20;98.30;;;;;;3954681;30;20505;-82
2021/10/13 11:06:24;;;;;;;8.67;4.43;;;14.20;98.30;;;;;;3954542;30;20919;-82
2021/10/13 11:08:29;;;;;;;6.33;4.20;;;14.40;98.30;;;;;;3954685;30;20486;-82
2021/10/13 11:10:31;;;;;;;5.87;4.10;;;14.30;98.30;;;;;;3954643;30;20481;-82
2021/10/13 11:12:47;;;;;;;8.23;4.47;;;14.30;98.30;;;;;;3953454;30;20489;-83
2021/10/13 11:14:50;;;;;;;4.73;4.07;;;14.20;98.30;;;;;;3954995;30;20519;-82
2021/10/13 11:16:55;;;;;;;7.03;3.67;;;14.00;98.30;;;;;;3967465;29;20645;-82
2021/10/13 11:19:09;;;;;;;5.70;4.53;;;14.20;98.30;;;;;;3956013;30;20511;-82
2021/10/13 11:21:13;;;;;;;8.70;4.40;;;14.10;98.30;;;;;;3956708;30;20479;-82
2021/10/13 11:23:18;;;;;;;4.93;3.90;;;14.20;98.30;;;;;;3949801;30;20471;-82
2021/10/13 11:25:24;;;;;;;7.17;4.77;;;14.20;98.30;;;;;;3954490;30;20509;-82
2021/10/13 11:27:27;;;;;;;6.83;4.20;;;14.00;98.30;;;;;;3954544;30;20570;-82
2021/10/13 11:29:34;;;;;;;8.00;5.60;;;13.90;98.30;;;;;;3967491;29;21142;-83
2021/10/13 11:31:37;;;;;;;5.70;4.77;;;14.20;98.30;;;;;;3954062;30;20508;-83
2021/10/13 11:33:40;;;;;;;5.47;3.30;;;14.40;98.30;;;;;;3954324;30;20494;-83
2021/10/13 11:35:44;;;;;;;4.33;3.40;;;14.50;98.30;;;;;;3954106;30;20514;-83
2021/10/13 11:37:48;;;;;;;4.10;3.30;;;14.60;98.30;;;;;;3954302;30;20478;-82
2021/10/13 11:39:51;;;;;;;4.67;3.23;;;14.90;98.30;;;;;;3962226;29;20576;-82
2021/10/13 11:41:57;;;;;;;8.30;3.20;;;15.40;98.30;;;;;;3955080;30;20530;-83
2021/10/13 11:44:06;;;;;;;4.80;3.10;;;16.00;98.30;;;;;;3954398;30;21148;-83
2021/10/13 11:46:14;;;;;;;4.20;2.90;;;16.60;98.30;;;;;;3954331;30;20493;-82
2021/10/13 11:48:23;;;;;;;5.07;3.13;;;16.90;98.30;;;;;;3954127;30;20489;-83
2021/10/13 11:50:26;;;;;;;4.37;3.20;;;17.00;98.30;;;;;;3949061;30;20467;-82
2021/10/13 11:52:30;;;;;;;4.77;3.17;;;17.10;98.30;;;;;;3953674;30;20482;-83
2021/10/13 11:54:33;;;;;;;6.70;3.20;;;17.30;98.30;;;;;;3954043;30;20521;-83
2021/10/13 11:56:36;;;;;;;5.10;3.20;;;17.00;98.30;;;;;;3953920;30;20519;-83
2021/10/13 11:58:41;;;;;;;4.07;3.10;;;16.70;98.30;;;;;;3953560;30;20487;-82
2021/10/13 12:00:46;;;;;;;3.60;3.30;;;16.70;98.30;;;;;;3953854;30;20492;-83
2021/10/13 12:03:01;;;;;;;6.10;3.50;;;16.30;98.30;;;;;;3953917;29;20577;-83
2021/10/13 12:05:07;;;;;;;6.10;3.30;;;15.50;98.30;;;;;;3953907;30;20565;-82
2021/10/13 12:07:19;;;;;;;3.90;3.37;;;14.80;98.30;;;;;;3958041;30;20483;-82
2021/10/13 12:09:22;;;;;;;7.10;3.60;;;14.30;98.30;;;;;;3953915;30;20813;-83
2021/10/13 12:11:36;;;;;;;7.57;4.20;;;14.30;98.30;;;;;;3953603;30;20487;-82
2021/10/13 12:13:44;;;;;;;5.50;3.63;;;14.30;98.30;;;;;;3952985;29;20826;-83
2021/10/13 12:16:08;;;;;;;6.37;3.13;;;14.40;98.30;;;;;;3953397;30;20499;-83
2021/10/13 12:18:14;;;;;;;5.53;3.10;;;14.30;98.30;;;;;;3956811;30;20498;-82
2021/10/13 12:20:20;;;;;;;8.07;5.00;;;14.30;98.30;;;;;;3953718;30;20482;-83
2021/10/13 12:22:23;;;;;;;12.13;7.33;;;14.30;98.30;;;;;;3953351;30;20482;-82
2021/10/13 12:24:26;;;;;;;10.40;7.10;;;14.30;98.30;;;;;;3965943;29;20572;-82
2021/10/13 12:26:31;;;;;;;5.03;2.83;;;14.40;98.30;;;;;;3957898;29;20501;-83
2021/10/13 12:28:40;;;;;;;7.70;2.87;;;14.30;98.30;;;;;;3967449;29;20903;-82
2021/10/13 12:30:43;;;;;;;5.23;2.90;;;14.10;98.30;;;;;;3953806;30;20482;-83
2021/10/13 12:32:46;;;;;;;5.53;3.33;;;13.90;98.30;;;;;;3945952;30;20494;-84
2021/10/13 12:34:50;;;;;;;7.50;3.43;;;13.60;98.30;;;;;;3953648;30;20513;-83
2021/10/13 12:37:00;;;;;;;7.63;3.30;;;13.50;98.30;;;;;;3954180;30;21021;-84
2021/10/13 12:39:06;;;;;;;7.50;3.27;;;13.40;98.30;;;;;;3953410;30;20481;-83
2021/10/13 12:41:09;;;;;;;9.23;4.03;;;13.30;98.30;;;;;;3953305;30;20505;-83
2021/10/13 12:43:20;;;;;;;6.50;3.37;;;13.30;98.30;;;;;;3953262;30;20543;-84
2021/10/13 12:45:26;;;;;;;3.63;3.00;;;13.20;98.30;;;;;;3953619;30;20505;-83
2021/10/13 12:47:29;;;;;;;6.10;3.10;;;13.10;98.30;;;;;;3953612;30;20485;-83
2021/10/13 12:49:34;;;;;;;9.03;3.30;;;13.10;98.30;;;;;;3953263;30;20500;-84
2021/10/13 12:51:48;;;;;;;4.90;3.13;;;13.10;98.30;;;;;;3952916;30;20496;-83
2021/10/13 12:53:52;;;;;;;8.33;3.83;;;13.20;98.30;;;;;;3953416;30;20930;-83
2021/10/13 12:55:55;;;;;;;15.00;8.63;;;13.50;98.30;;;;;;3953047;30;20905;-84
2021/10/13 12:57:58;;;;;;;37.57;20.77;;;13.90;98.30;;;;;;3953040;30;20507;-83
2021/10/13 13:00:01;;;;;;;25.00;13.40;;;14.20;98.30;;;;;;3953016;30;20487;-83
2021/10/13 13:02:28;;;;;;;10.43;4.10;;;14.60;98.30;;;;;;3953076;30;20492;-84
2021/10/13 13:04:31;;;;;;;6.83;3.73;;;14.80;98.30;;;;;;3953106;30;20501;-84
2021/10/13 13:06:34;;;;;;;9.40;4.97;;;15.00;98.30;;;;;;3952961;30;20485;-84
2021/10/13 13:08:37;;;;;;;10.27;7.20;;;15.10;98.30;;;;;;3948240;30;20491;-84
2021/10/13 13:10:40;;;;;;;10.10;6.63;;;15.20;98.30;;;;;;3952506;30;21243;-84
2021/10/13 13:12:43;;;;;;;9.40;6.30;;;15.90;98.30;;;;;;3952878;30;20481;-84
2021/10/13 13:14:46;;;;;;;9.20;6.43;;;17.10;98.30;;;;;;3967609;29;20501;-84
2021/10/13 13:16:49;;;;;;;7.53;4.07;;;18.50;97.80;;;;;;3960023;29;20862;-84
2021/10/13 13:18:55;;;;;;;7.43;3.97;;;19.60;93.20;;;;;;3967174;29;20508;-84
2021/10/13 13:20:57;;;;;;;6.07;3.70;;;20.50;89.80;;;;;;3966092;29;20489;-82
2021/10/13 13:23:01;;;;;;;5.27;3.37;;;21.10;86.80;;;;;;3952304;30;21083;-83
2021/10/13 13:25:04;;;;;;;4.83;3.57;;;21.10;85.50;;;;;;3967474;29;20545;-82
2021/10/13 13:27:07;;;;;;;4.53;3.20;;;21.60;84.50;;;;;;3967813;29;20489;-82
2021/10/13 13:29:10;;;;;;;6.23;3.10;;;21.80;83.20;;;;;;3959810;29;20482;-82
2021/10/13 13:31:13;;;;;;;6.67;2.67;;;21.50;82.80;;;;;;3959950;29;20977;-82
2021/10/13 13:33:17;;;;;;;6.87;4.70;;;20.50;84.60;;;;;;3963917;29;20489;-82
2021/10/13 13:35:21;;;;;;;7.10;4.07;;;19.30;88.00;;;;;;3958956;29;20499;-82
2021/10/13 13:37:24;;;;;;;7.50;4.73;;;18.60;89.90;;;;;;3950078;29;20498;-82
2021/10/13 13:39:27;;;;;;;6.90;4.70;;;18.20;92.10;;;;;;3958305;29;20488;-82
2021/10/13 13:41:30;;;;;;;6.80;3.67;;;17.90;92.80;;;;;;3961704;29;20483;-84
2021/10/13 13:43:33;;;;;;;4.80;3.20;;;17.70;94.00;;;;;;3960046;30;20919;-84
2021/10/13 13:45:37;;;;;;;5.87;3.67;;;17.30;94.70;;;;;;3959903;29;21046;-84
2021/10/13 13:47:41;;;;;;;4.23;2.90;;;16.70;96.20;;;;;;3967382;29;20565;-84
2021/10/13 13:49:44;;;;;;;6.20;3.60;;;16.20;98.00;;;;;;3953133;29;20570;-84
2021/10/13 13:51:48;;;;;;;5.50;3.33;;;15.60;98.30;;;;;;3960166;29;20917;-83
2021/10/13 13:53:51;;;;;;;6.17;3.30;;;15.10;98.30;;;;;;3967420;29;21073;-83
2021/10/13 13:55:55;;;;;;;6.37;3.47;;;14.90;98.30;;;;;;3959079;30;20502;-84
2021/10/13 13:57:58;;;;;;;9.93;5.43;;;14.80;98.30;;;;;;3952543;30;20908;-83
2021/10/13 14:00:01;;;;;;;6.80;5.30;;;14.50;98.30;;;;;;3954888;29;20488;-84
2021/10/13 14:02:04;;;;;;;8.57;5.03;;;14.30;98.30;;;;;;3953539;29;20487;-84
2021/10/13 14:04:07;;;;;;;9.00;4.53;;;14.20;98.30;;;;;;3952568;30;20581;-84
2021/10/13 14:06:11;;;;;;;5.30;4.30;;;14.20;98.30;;;;;;3952582;30;20506;-83
2021/10/13 14:08:16;;;;;;;6.93;4.13;;;14.20;98.30;;;;;;3952181;30;20486;-84
2021/10/13 14:10:23;;;;;;;7.50;3.87;;;14.20;98.30;;;;;;3952763;30;20578;-84